Sexton Summit, Oregon
Current Conditions -  °F | °C
As of 3:56 AM on Monday 24 Nov 2014 (Local Time) from KSXT Reporting Station
Clear Clear  
Wind Chill: 26°   Ceiling: Unl
Heat Index: 35°   Visibility: 10mi
Dew Point: 29°   Wind: 13mph
Humidity: 78%   Direction: 120°ESE
Pressure: 30.34"   Gusts: NA
Location:  42.61°N, 123.36°W
Report Text: KSXT 241156Z AUTO 12011KT 10SM CLR 02/M02 A3034 RMK AO2 SLP291 T00171017 10028 20011 50003 $
Loading
Personal Weather Stations






























Interactive Weather Map New forecast layout! Learn more

10-Day Weather Forecast

Advertisements
Track Severe Weather on mobile